sensor_id;sensor_type;location;lat;lon;timestamp;P1;durP1;ratioP1;P2;durP2;ratioP2
1475;SDS011;730;48.870;12.542;2023-01-16T00:00:57;1.38;;;1.25;;
1475;SDS011;730;48.870;12.542;2023-01-16T00:03:24;3.60;;;1.98;;
1475;SDS011;730;48.870;12.542;2023-01-16T00:05:50;1.60;;;1.20;;
1475;SDS011;730;48.870;12.542;2023-01-16T00:08:16;2.47;;;1.30;;
1475;SDS011;730;48.870;12.542;2023-01-16T00:10:43;1.33;;;0.88;;
1475;SDS011;730;48.870;12.542;2023-01-16T00:13:10;1.38;;;1.00;;
1475;SDS011;730;48.870;12.542;2023-01-16T00:15:37;1.75;;;1.05;;
1475;SDS011;730;48.870;12.542;2023-01-16T00:18:04;1.17;;;1.00;;
1475;SDS011;730;48.870;12.542;2023-01-16T00:20:30;2.50;;;1.30;;
1475;SDS011;730;48.870;12.542;2023-01-16T00:22:56;1.30;;;0.90;;
1475;SDS011;730;48.870;12.542;2023-01-16T00:25:22;1.35;;;1.10;;
1475;SDS011;730;48.870;12.542;2023-01-16T00:27:48;1.10;;;1.00;;
1475;SDS011;730;48.870;12.542;2023-01-16T00:30:14;1.70;;;1.10;;
1475;SDS011;730;48.870;12.542;2023-01-16T00:32:40;1.63;;;1.02;;
1475;SDS011;730;48.870;12.542;2023-01-16T00:35:06;12.80;;;1.15;;
1475;SDS011;730;48.870;12.542;2023-01-16T00:37:33;3.95;;;1.52;;
1475;SDS011;730;48.870;12.542;2023-01-16T00:39:59;1.40;;;0.80;;
1475;SDS011;730;48.870;12.542;2023-01-16T00:42:25;2.30;;;0.98;;
1475;SDS011;730;48.870;12.542;2023-01-16T00:44:51;1.67;;;1.10;;
1475;SDS011;730;48.870;12.542;2023-01-16T00:47:17;1.50;;;0.80;;
1475;SDS011;730;48.870;12.542;2023-01-16T00:49:43;1.30;;;0.88;;
1475;SDS011;730;48.870;12.542;2023-01-16T00:52:09;2.00;;;0.98;;
1475;SDS011;730;48.870;12.542;2023-01-16T00:54:38;2.33;;;0.90;;
1475;SDS011;730;48.870;12.542;2023-01-16T00:57:04;1.85;;;0.90;;
1475;SDS011;730;48.870;12.542;2023-01-16T00:59:30;3.38;;;1.17;;
1475;SDS011;730;48.870;12.542;2023-01-16T01:01:56;2.22;;;1.05;;
1475;SDS011;730;48.870;12.542;2023-01-16T01:04:22;1.42;;;1.05;;
1475;SDS011;730;48.870;12.542;2023-01-16T01:06:48;3.05;;;1.00;;
1475;SDS011;730;48.870;12.542;2023-01-16T01:09:14;1.23;;;0.93;;
1475;SDS011;730;48.870;12.542;2023-01-16T01:11:40;2.13;;;0.93;;
1475;SDS011;730;48.870;12.542;2023-01-16T01:14:06;2.45;;;1.30;;
1475;SDS011;730;48.870;12.542;2023-01-16T01:16:32;1.55;;;0.90;;
1475;SDS011;730;48.870;12.542;2023-01-16T01:18:58;1.10;;;0.80;;
1475;SDS011;730;48.870;12.542;2023-01-16T01:21:24;2.65;;;1.40;;
1475;SDS011;730;48.870;12.542;2023-01-16T01:23:50;1.33;;;0.77;;
1475;SDS011;730;48.870;12.542;2023-01-16T01:26:16;1.63;;;0.90;;
1475;SDS011;730;48.870;12.542;2023-01-16T01:28:43;1.65;;;0.93;;
1475;SDS011;730;48.870;12.542;2023-01-16T01:31:10;1.92;;;0.88;;
1475;SDS011;730;48.870;12.542;2023-01-16T01:33:38;1.38;;;0.70;;
1475;SDS011;730;48.870;12.542;2023-01-16T01:36:05;1.65;;;0.73;;
1475;SDS011;730;48.870;12.542;2023-01-16T01:38:32;3.78;;;1.27;;
1475;SDS011;730;48.870;12.542;2023-01-16T01:40:58;2.10;;;1.10;;
1475;SDS011;730;48.870;12.542;2023-01-16T01:49:10;1.75;;;1.30;;
1475;SDS011;730;48.870;12.542;2023-01-16T01:51:45;2.40;;;0.77;;
1475;SDS011;730;48.870;12.542;2023-01-16T01:54:13;1.40;;;0.80;;
1475;SDS011;730;48.870;12.542;2023-01-16T01:56:51;2.00;;;1.30;;
1475;SDS011;730;48.870;12.542;2023-01-16T01:59:25;1.90;;;0.90;;
1475;SDS011;730;48.870;12.542;2023-01-16T02:01:57;2.03;;;1.38;;
1475;SDS011;730;48.870;12.542;2023-01-16T02:04:30;1.55;;;0.82;;
1475;SDS011;730;48.870;12.542;2023-01-16T02:06:58;1.73;;;1.00;;
1475;SDS011;730;48.870;12.542;2023-01-16T02:09:29;1.70;;;1.13;;
1475;SDS011;730;48.870;12.542;2023-01-16T02:11:56;1.70;;;1.10;;
1475;SDS011;730;48.870;12.542;2023-01-16T02:14:33;2.45;;;1.25;;
1475;SDS011;730;48.870;12.542;2023-01-16T02:17:05;1.10;;;0.82;;
1475;SDS011;730;48.870;12.542;2023-01-16T02:26:07;1.85;;;1.10;;
1475;SDS011;730;48.870;12.542;2023-01-16T02:39:50;2.75;;;1.27;;
1475;SDS011;730;48.870;12.542;2023-01-16T02:42:30;3.17;;;1.23;;
1475;SDS011;730;48.870;12.542;2023-01-16T02:56:38;2.78;;;1.48;;
1475;SDS011;730;48.870;12.542;2023-01-16T02:59:09;2.33;;;0.98;;
1475;SDS011;730;48.870;12.542;2023-01-16T03:01:37;1.90;;;1.23;;
1475;SDS011;730;48.870;12.542;2023-01-16T03:12:40;3.05;;;2.08;;
1475;SDS011;730;48.870;12.542;2023-01-16T03:15:32;1.92;;;1.40;;
1475;SDS011;730;48.870;12.542;2023-01-16T03:18:10;1.75;;;1.13;;
1475;SDS011;730;48.870;12.542;2023-01-16T03:20:50;2.22;;;1.23;;
1475;SDS011;730;48.870;12.542;2023-01-16T03:23:30;1.50;;;1.35;;
1475;SDS011;730;48.870;12.542;2023-01-16T03:26:09;2.83;;;1.40;;
1475;SDS011;730;48.870;12.542;2023-01-16T03:34:22;3.38;;;1.90;;
1475;SDS011;730;48.870;12.542;2023-01-16T03:37:02;2.63;;;1.20;;
1475;SDS011;730;48.870;12.542;2023-01-16T03:39:45;2.35;;;1.48;;
1475;SDS011;730;48.870;12.542;2023-01-16T03:42:15;3.20;;;1.92;;
1475;SDS011;730;48.870;12.542;2023-01-16T03:44:51;1.50;;;1.20;;
1475;SDS011;730;48.870;12.542;2023-01-16T03:47:28;2.67;;;1.60;;
1475;SDS011;730;48.870;12.542;2023-01-16T03:49:58;2.30;;;1.75;;
1475;SDS011;730;48.870;12.542;2023-01-16T03:52:33;3.20;;;1.40;;
1475;SDS011;730;48.870;12.542;2023-01-16T03:55:12;2.00;;;1.45;;
1475;SDS011;730;48.870;12.542;2023-01-16T03:57:46;2.22;;;1.30;;
1475;SDS011;730;48.870;12.542;2023-01-16T04:00:17;3.17;;;1.58;;
1475;SDS011;730;48.870;12.542;2023-01-16T04:02:46;2.08;;;1.80;;
1475;SDS011;730;48.870;12.542;2023-01-16T04:05:15;2.20;;;1.40;;
1475;SDS011;730;48.870;12.542;2023-01-16T04:08:10;5.20;;;2.10;;
1475;SDS011;730;48.870;12.542;2023-01-16T04:10:42;2.20;;;1.83;;
1475;SDS011;730;48.870;12.542;2023-01-16T04:13:13;2.33;;;2.00;;
1475;SDS011;730;48.870;12.542;2023-01-16T04:15:50;2.33;;;1.90;;
1475;SDS011;730;48.870;12.542;2023-01-16T04:18:20;2.08;;;1.88;;
1475;SDS011;730;48.870;12.542;2023-01-16T04:20:50;2.10;;;1.90;;
1475;SDS011;730;48.870;12.542;2023-01-16T04:23:16;2.17;;;1.65;;
1475;SDS011;730;48.870;12.542;2023-01-16T04:25:43;2.63;;;1.73;;
1475;SDS011;730;48.870;12.542;2023-01-16T04:28:11;2.30;;;1.50;;
1475;SDS011;730;48.870;12.542;2023-01-16T04:30:37;3.47;;;1.73;;
1475;SDS011;730;48.870;12.542;2023-01-16T04:33:03;2.95;;;1.92;;
1475;SDS011;730;48.870;12.542;2023-01-16T04:35:30;5.10;;;2.25;;
1475;SDS011;730;48.870;12.542;2023-01-16T04:37:57;2.40;;;1.98;;
1475;SDS011;730;48.870;12.542;2023-01-16T04:40:24;4.85;;;2.17;;
1475;SDS011;730;48.870;12.542;2023-01-16T04:42:50;3.25;;;2.00;;
1475;SDS011;730;48.870;12.542;2023-01-16T04:45:16;2.80;;;2.10;;
1475;SDS011;730;48.870;12.542;2023-01-16T04:47:49;1.88;;;1.70;;
1475;SDS011;730;48.870;12.542;2023-01-16T04:50:16;2.10;;;1.80;;
1475;SDS011;730;48.870;12.542;2023-01-16T04:52:45;2.53;;;2.10;;
1475;SDS011;730;48.870;12.542;2023-01-16T04:55:11;2.47;;;1.98;;
1475;SDS011;730;48.870;12.542;2023-01-16T04:57:37;3.40;;;2.20;;
1475;SDS011;730;48.870;12.542;2023-01-16T05:00:04;2.33;;;2.13;;
1475;SDS011;730;48.870;12.542;2023-01-16T05:02:31;3.15;;;1.60;;
1475;SDS011;730;48.870;12.542;2023-01-16T05:04:57;2.20;;;1.63;;
1475;SDS011;730;48.870;12.542;2023-01-16T05:07:23;2.50;;;1.80;;
1475;SDS011;730;48.870;12.542;2023-01-16T05:09:52;5.13;;;2.20;;
1475;SDS011;730;48.870;12.542;2023-01-16T05:12:18;3.10;;;2.50;;
1475;SDS011;730;48.870;12.542;2023-01-16T05:14:45;2.85;;;2.00;;
1475;SDS011;730;48.870;12.542;2023-01-16T05:17:11;2.25;;;2.00;;
1475;SDS011;730;48.870;12.542;2023-01-16T05:19:37;2.80;;;1.65;;
1475;SDS011;730;48.870;12.542;2023-01-16T05:22:03;2.30;;;1.90;;
1475;SDS011;730;48.870;12.542;2023-01-16T05:24:29;3.83;;;2.35;;
1475;SDS011;730;48.870;12.542;2023-01-16T05:26:55;2.50;;;1.90;;
1475;SDS011;730;48.870;12.542;2023-01-16T05:29:21;3.53;;;2.50;;
1475;SDS011;730;48.870;12.542;2023-01-16T05:31:47;3.75;;;2.10;;
1475;SDS011;730;48.870;12.542;2023-01-16T05:34:13;2.10;;;1.80;;
1475;SDS011;730;48.870;12.542;2023-01-16T05:36:39;2.55;;;2.20;;
1475;SDS011;730;48.870;12.542;2023-01-16T05:39:05;4.15;;;2.28;;
1475;SDS011;730;48.870;12.542;2023-01-16T05:41:31;2.47;;;2.00;;
1475;SDS011;730;48.870;12.542;2023-01-16T05:44:03;3.97;;;2.67;;
1475;SDS011;730;48.870;12.542;2023-01-16T05:46:29;2.63;;;2.20;;
1475;SDS011;730;48.870;12.542;2023-01-16T05:48:55;3.70;;;2.13;;
1475;SDS011;730;48.870;12.542;2023-01-16T05:51:22;5.07;;;2.72;;
1475;SDS011;730;48.870;12.542;2023-01-16T05:53:51;4.32;;;2.78;;
1475;SDS011;730;48.870;12.542;2023-01-16T05:56:19;4.25;;;2.47;;
1475;SDS011;730;48.870;12.542;2023-01-16T05:58:47;2.70;;;2.20;;
1475;SDS011;730;48.870;12.542;2023-01-16T06:01:14;3.20;;;2.90;;
1475;SDS011;730;48.870;12.542;2023-01-16T06:03:45;5.45;;;2.70;;
1475;SDS011;730;48.870;12.542;2023-01-16T06:06:11;2.85;;;2.15;;
1475;SDS011;730;48.870;12.542;2023-01-16T06:09:03;2.42;;;2.22;;
1475;SDS011;730;48.870;12.542;2023-01-16T06:11:29;2.95;;;2.30;;
1475;SDS011;730;48.870;12.542;2023-01-16T06:13:55;3.80;;;2.97;;
1475;SDS011;730;48.870;12.542;2023-01-16T06:16:21;5.70;;;2.72;;
1475;SDS011;730;48.870;12.542;2023-01-16T06:18:50;2.55;;;2.00;;
1475;SDS011;730;48.870;12.542;2023-01-16T06:21:16;2.70;;;2.28;;
1475;SDS011;730;48.870;12.542;2023-01-16T06:23:42;3.45;;;2.38;;
1475;SDS011;730;48.870;12.542;2023-01-16T06:26:08;3.33;;;2.22;;
1475;SDS011;730;48.870;12.542;2023-01-16T06:28:35;6.10;;;2.45;;
1475;SDS011;730;48.870;12.542;2023-01-16T06:31:02;2.70;;;2.08;;
1475;SDS011;730;48.870;12.542;2023-01-16T06:33:30;4.20;;;2.20;;
1475;SDS011;730;48.870;12.542;2023-01-16T06:36:22;2.20;;;2.00;;
1475;SDS011;730;48.870;12.542;2023-01-16T06:38:48;3.35;;;2.70;;
1475;SDS011;730;48.870;12.542;2023-01-16T06:41:14;4.25;;;2.10;;
1475;SDS011;730;48.870;12.542;2023-01-16T06:43:40;2.47;;;2.15;;
1475;SDS011;730;48.870;12.542;2023-01-16T06:46:06;2.97;;;2.20;;
1475;SDS011;730;48.870;12.542;2023-01-16T06:48:32;2.88;;;2.55;;
1475;SDS011;730;48.870;12.542;2023-01-16T06:51:00;3.25;;;2.60;;
1475;SDS011;730;48.870;12.542;2023-01-16T06:53:26;4.38;;;2.53;;
1475;SDS011;730;48.870;12.542;2023-01-16T06:55:52;2.50;;;2.30;;
1475;SDS011;730;48.870;12.542;2023-01-16T06:58:18;3.25;;;2.42;;
1475;SDS011;730;48.870;12.542;2023-01-16T07:00:45;2.28;;;2.05;;
1475;SDS011;730;48.870;12.542;2023-01-16T07:03:16;4.55;;;2.55;;
1475;SDS011;730;48.870;12.542;2023-01-16T07:05:43;3.03;;;2.65;;
1475;SDS011;730;48.870;12.542;2023-01-16T07:08:10;2.50;;;2.30;;
1475;SDS011;730;48.870;12.542;2023-01-16T07:10:36;2.65;;;2.08;;
1475;SDS011;730;48.870;12.542;2023-01-16T07:13:02;2.60;;;1.98;;
1475;SDS011;730;48.870;12.542;2023-01-16T07:15:28;2.60;;;1.98;;
1475;SDS011;730;48.870;12.542;2023-01-16T07:18:13;2.45;;;2.10;;
1475;SDS011;730;48.870;12.542;2023-01-16T07:21:03;3.88;;;2.00;;
1475;SDS011;730;48.870;12.542;2023-01-16T07:24:08;3.17;;;1.80;;
1475;SDS011;730;48.870;12.542;2023-01-16T07:26:36;4.00;;;2.53;;
1475;SDS011;730;48.870;12.542;2023-01-16T07:29:05;3.20;;;2.10;;
1475;SDS011;730;48.870;12.542;2023-01-16T07:31:31;2.35;;;1.98;;
1475;SDS011;730;48.870;12.542;2023-01-16T07:34:07;2.63;;;2.30;;
1475;SDS011;730;48.870;12.542;2023-01-16T07:36:33;3.00;;;2.67;;
1475;SDS011;730;48.870;12.542;2023-01-16T07:38:59;3.90;;;2.55;;
1475;SDS011;730;48.870;12.542;2023-01-16T07:41:25;3.95;;;1.80;;
1475;SDS011;730;48.870;12.542;2023-01-16T07:43:51;3.88;;;3.28;;
1475;SDS011;730;48.870;12.542;2023-01-16T07:46:17;2.30;;;1.95;;
1475;SDS011;730;48.870;12.542;2023-01-16T07:48:43;2.70;;;2.40;;
1475;SDS011;730;48.870;12.542;2023-01-16T07:51:09;2.95;;;2.38;;
1475;SDS011;730;48.870;12.542;2023-01-16T07:53:35;3.35;;;2.30;;
1475;SDS011;730;48.870;12.542;2023-01-16T07:56:02;2.85;;;2.40;;
1475;SDS011;730;48.870;12.542;2023-01-16T07:58:29;3.38;;;3.05;;
1475;SDS011;730;48.870;12.542;2023-01-16T08:00:56;4.93;;;2.22;;
1475;SDS011;730;48.870;12.542;2023-01-16T08:03:22;3.63;;;1.85;;
1475;SDS011;730;48.870;12.542;2023-01-16T08:05:49;2.08;;;1.90;;
1475;SDS011;730;48.870;12.542;2023-01-16T08:08:19;2.47;;;2.28;;
1475;SDS011;730;48.870;12.542;2023-01-16T08:10:45;3.78;;;1.88;;
1475;SDS011;730;48.870;12.542;2023-01-16T08:13:11;3.17;;;1.80;;
1475;SDS011;730;48.870;12.542;2023-01-16T08:15:37;2.00;;;1.83;;
1475;SDS011;730;48.870;12.542;2023-01-16T08:18:04;3.42;;;1.60;;
1475;SDS011;730;48.870;12.542;2023-01-16T08:20:30;3.10;;;1.67;;
1475;SDS011;730;48.870;12.542;2023-01-16T08:22:56;2.63;;;1.83;;
1475;SDS011;730;48.870;12.542;2023-01-16T08:25:23;2.72;;;1.60;;
1475;SDS011;730;48.870;12.542;2023-01-16T08:27:50;4.85;;;1.90;;
1475;SDS011;730;48.870;12.542;2023-01-16T08:30:16;2.22;;;1.80;;
1475;SDS011;730;48.870;12.542;2023-01-16T08:32:43;1.83;;;1.42;;
1475;SDS011;730;48.870;12.542;2023-01-16T08:35:09;1.80;;;1.50;;
1475;SDS011;730;48.870;12.542;2023-01-16T08:37:35;2.40;;;1.55;;
1475;SDS011;730;48.870;12.542;2023-01-16T08:40:02;2.30;;;1.65;;
1475;SDS011;730;48.870;12.542;2023-01-16T08:42:32;4.82;;;1.65;;
1475;SDS011;730;48.870;12.542;2023-01-16T08:45:16;3.20;;;2.17;;
1475;SDS011;730;48.870;12.542;2023-01-16T08:48:01;4.85;;;1.80;;
1475;SDS011;730;48.870;12.542;2023-01-16T08:51:06;2.55;;;1.73;;
1475;SDS011;730;48.870;12.542;2023-01-16T08:53:51;2.70;;;1.98;;
1475;SDS011;730;48.870;12.542;2023-01-16T08:56:18;1.77;;;1.58;;
1475;SDS011;730;48.870;12.542;2023-01-16T08:58:45;3.67;;;1.77;;
1475;SDS011;730;48.870;12.542;2023-01-16T09:01:11;3.80;;;1.70;;
1475;SDS011;730;48.870;12.542;2023-01-16T09:03:38;3.38;;;1.80;;
1475;SDS011;730;48.870;12.542;2023-01-16T09:06:04;2.47;;;2.13;;
1475;SDS011;730;48.870;12.542;2023-01-16T09:08:30;2.10;;;1.80;;
1475;SDS011;730;48.870;12.542;2023-01-16T09:10:56;1.92;;;1.40;;
1475;SDS011;730;48.870;12.542;2023-01-16T09:13:41;4.22;;;1.77;;
1475;SDS011;730;48.870;12.542;2023-01-16T09:16:20;2.55;;;1.90;;
1475;SDS011;730;48.870;12.542;2023-01-16T09:18:48;4.15;;;2.03;;
1475;SDS011;730;48.870;12.542;2023-01-16T09:21:15;2.75;;;1.85;;
1475;SDS011;730;48.870;12.542;2023-01-16T09:23:41;2.85;;;1.77;;
1475;SDS011;730;48.870;12.542;2023-01-16T09:26:07;3.17;;;1.95;;
1475;SDS011;730;48.870;12.542;2023-01-16T09:28:33;2.80;;;2.22;;
1475;SDS011;730;48.870;12.542;2023-01-16T09:31:00;2.75;;;2.20;;
1475;SDS011;730;48.870;12.542;2023-01-16T09:33:26;4.07;;;2.67;;
1475;SDS011;730;48.870;12.542;2023-01-16T09:35:52;3.25;;;2.30;;
1475;SDS011;730;48.870;12.542;2023-01-16T09:38:19;2.53;;;1.30;;
1475;SDS011;730;48.870;12.542;2023-01-16T09:40:46;2.40;;;1.90;;
1475;SDS011;730;48.870;12.542;2023-01-16T09:43:36;3.00;;;1.90;;
1475;SDS011;730;48.870;12.542;2023-01-16T09:46:06;3.08;;;1.90;;
1475;SDS011;730;48.870;12.542;2023-01-16T09:48:44;3.38;;;1.55;;
1475;SDS011;730;48.870;12.542;2023-01-16T09:51:24;2.75;;;1.75;;
1475;SDS011;730;48.870;12.542;2023-01-16T09:53:56;7.50;;;1.65;;
1475;SDS011;730;48.870;12.542;2023-01-16T09:56:50;2.08;;;1.75;;
1475;SDS011;730;48.870;12.542;2023-01-16T09:59:45;3.55;;;2.40;;
1475;SDS011;730;48.870;12.542;2023-01-16T10:04:53;2.90;;;2.20;;
1475;SDS011;730;48.870;12.542;2023-01-16T10:07:32;2.88;;;1.92;;
1475;SDS011;730;48.870;12.542;2023-01-16T10:12:36;3.13;;;2.10;;
1475;SDS011;730;48.870;12.542;2023-01-16T10:15:17;3.50;;;1.77;;
1475;SDS011;730;48.870;12.542;2023-01-16T10:30:29;1.83;;;1.60;;
1475;SDS011;730;48.870;12.542;2023-01-16T10:33:05;2.40;;;1.85;;
1475;SDS011;730;48.870;12.542;2023-01-16T10:35:41;2.40;;;1.60;;
1475;SDS011;730;48.870;12.542;2023-01-16T10:38:20;2.75;;;1.80;;
1475;SDS011;730;48.870;12.542;2023-01-16T10:40:58;2.10;;;1.65;;
1475;SDS011;730;48.870;12.542;2023-01-16T10:43:35;2.50;;;1.45;;
1475;SDS011;730;48.870;12.542;2023-01-16T10:46:23;2.30;;;1.42;;
1475;SDS011;730;48.870;12.542;2023-01-16T10:49:09;1.80;;;1.40;;
1475;SDS011;730;48.870;12.542;2023-01-16T10:51:53;3.50;;;2.20;;
1475;SDS011;730;48.870;12.542;2023-01-16T10:57:51;1.98;;;1.50;;
1475;SDS011;730;48.870;12.542;2023-01-16T11:07:12;4.03;;;1.35;;
1475;SDS011;730;48.870;12.542;2023-01-16T11:09:41;1.70;;;1.40;;
1475;SDS011;730;48.870;12.542;2023-01-16T11:12:11;3.42;;;1.30;;
1475;SDS011;730;48.870;12.542;2023-01-16T11:15:13;3.38;;;1.40;;
1475;SDS011;730;48.870;12.542;2023-01-16T11:18:00;2.05;;;1.08;;
1475;SDS011;730;48.870;12.542;2023-01-16T11:20:47;2.90;;;1.33;;
1475;SDS011;730;48.870;12.542;2023-01-16T11:23:17;2.13;;;1.30;;
1475;SDS011;730;48.870;12.542;2023-01-16T11:25:46;1.50;;;1.15;;
1475;SDS011;730;48.870;12.542;2023-01-16T11:28:22;5.60;;;1.45;;
1475;SDS011;730;48.870;12.542;2023-01-16T11:30:54;2.00;;;1.08;;
1475;SDS011;730;48.870;12.542;2023-01-16T11:33:27;3.25;;;1.48;;
1475;SDS011;730;48.870;12.542;2023-01-16T11:36:03;1.85;;;1.30;;
1475;SDS011;730;48.870;12.542;2023-01-16T11:38:32;2.70;;;1.10;;
1475;SDS011;730;48.870;12.542;2023-01-16T11:41:01;1.50;;;0.95;;
1475;SDS011;730;48.870;12.542;2023-01-16T11:43:30;2.45;;;1.38;;
1475;SDS011;730;48.870;12.542;2023-01-16T11:46:31;1.83;;;0.90;;
1475;SDS011;730;48.870;12.542;2023-01-16T11:49:16;1.20;;;0.68;;
1475;SDS011;730;48.870;12.542;2023-01-16T11:51:44;2.63;;;1.20;;
1475;SDS011;730;48.870;12.542;2023-01-16T11:54:15;2.88;;;1.08;;
1475;SDS011;730;48.870;12.542;2023-01-16T12:08:24;2.75;;;1.30;;
1475;SDS011;730;48.870;12.542;2023-01-16T12:33:39;1.00;;;0.70;;
1475;SDS011;730;48.870;12.542;2023-01-16T12:36:07;1.20;;;0.60;;
1475;SDS011;730;48.870;12.542;2023-01-16T12:41:35;1.20;;;0.90;;
1475;SDS011;730;48.870;12.542;2023-01-16T12:44:31;1.40;;;0.90;;
1475;SDS011;730;48.870;12.542;2023-01-16T12:52:52;1.13;;;0.70;;
1475;SDS011;730;48.870;12.542;2023-01-16T12:58:30;1.20;;;0.57;;
1475;SDS011;730;48.870;12.542;2023-01-16T13:06:15;1.53;;;0.87;;
1475;SDS011;730;48.870;12.542;2023-01-16T13:08:48;1.50;;;0.73;;
1475;SDS011;730;48.870;12.542;2023-01-16T13:11:28;1.20;;;0.80;;
1475;SDS011;730;48.870;12.542;2023-01-16T13:14:24;1.80;;;0.73;;
1475;SDS011;730;48.870;12.542;2023-01-16T13:19:29;1.77;;;0.97;;
1475;SDS011;730;48.870;12.542;2023-01-16T13:22:19;1.63;;;0.67;;
1475;SDS011;730;48.870;12.542;2023-01-16T13:24:48;1.00;;;0.57;;
1475;SDS011;730;48.870;12.542;2023-01-16T13:27:55;1.33;;;0.80;;
1475;SDS011;730;48.870;12.542;2023-01-16T13:30:25;1.77;;;0.80;;
1475;SDS011;730;48.870;12.542;2023-01-16T13:32:53;1.10;;;0.70;;
1475;SDS011;730;48.870;12.542;2023-01-16T13:35:33;1.40;;;0.60;;
1475;SDS011;730;48.870;12.542;2023-01-16T13:38:04;0.90;;;0.47;;
1475;SDS011;730;48.870;12.542;2023-01-16T13:43:37;2.03;;;0.80;;
1475;SDS011;730;48.870;12.542;2023-01-16T13:46:26;1.00;;;0.60;;
1475;SDS011;730;48.870;12.542;2023-01-16T13:48:56;1.20;;;0.73;;
1475;SDS011;730;48.870;12.542;2023-01-16T13:51:26;1.30;;;0.60;;
1475;SDS011;730;48.870;12.542;2023-01-16T13:53:54;1.20;;;0.60;;
1475;SDS011;730;48.870;12.542;2023-01-16T13:56:25;0.95;;;0.55;;
1475;SDS011;730;48.870;12.542;2023-01-16T13:58:59;1.50;;;0.90;;
1475;SDS011;730;48.870;12.542;2023-01-16T14:06:47;0.80;;;0.40;;
1475;SDS011;730;48.870;12.542;2023-01-16T14:12:17;0.90;;;0.50;;
1475;SDS011;730;48.870;12.542;2023-01-16T14:14:46;0.83;;;0.57;;
1475;SDS011;730;48.870;12.542;2023-01-16T14:23:17;1.65;;;0.70;;
1475;SDS011;730;48.870;12.542;2023-01-16T14:26:07;1.60;;;1.00;;
1475;SDS011;730;48.870;12.542;2023-01-16T14:28:35;2.50;;;0.97;;
1475;SDS011;730;48.870;12.542;2023-01-16T14:31:04;1.73;;;0.70;;
1475;SDS011;730;48.870;12.542;2023-01-16T14:33:43;2.75;;;0.90;;
1475;SDS011;730;48.870;12.542;2023-01-16T14:36:11;1.53;;;0.90;;
1475;SDS011;730;48.870;12.542;2023-01-16T14:38:39;1.10;;;0.70;;
1475;SDS011;730;48.870;12.542;2023-01-16T14:41:14;2.30;;;1.33;;
1475;SDS011;730;48.870;12.542;2023-01-16T14:44:18;1.93;;;1.10;;
1475;SDS011;730;48.870;12.542;2023-01-16T14:50:15;3.40;;;1.90;;
1475;SDS011;730;48.870;12.542;2023-01-16T14:56:05;1.07;;;0.67;;
1475;SDS011;730;48.870;12.542;2023-01-16T14:58:34;1.20;;;0.70;;
1475;SDS011;730;48.870;12.542;2023-01-16T15:01:14;2.03;;;0.70;;
1475;SDS011;730;48.870;12.542;2023-01-16T15:04:24;0.90;;;0.50;;
1475;SDS011;730;48.870;12.542;2023-01-16T15:06:59;1.50;;;1.05;;
1475;SDS011;730;48.870;12.542;2023-01-16T15:09:28;4.75;;;2.72;;
1475;SDS011;730;48.870;12.542;2023-01-16T15:11:59;9.07;;;7.83;;
1475;SDS011;730;48.870;12.542;2023-01-16T15:14:26;13.55;;;11.82;;
1475;SDS011;730;48.870;12.542;2023-01-16T15:17:13;10.68;;;9.57;;
1475;SDS011;730;48.870;12.542;2023-01-16T15:20:06;6.15;;;5.55;;
1475;SDS011;730;48.870;12.542;2023-01-16T15:33:38;3.40;;;1.87;;
1475;SDS011;730;48.870;12.542;2023-01-16T15:36:17;8.95;;;6.38;;
1475;SDS011;730;48.870;12.542;2023-01-16T15:38:47;16.17;;;14.67;;
1475;SDS011;730;48.870;12.542;2023-01-16T15:41:18;12.95;;;11.75;;
1475;SDS011;730;48.870;12.542;2023-01-16T15:44:09;14.82;;;13.35;;
1475;SDS011;730;48.870;12.542;2023-01-16T15:53:10;18.92;;;17.25;;
1475;SDS011;730;48.870;12.542;2023-01-16T15:55:41;9.30;;;8.50;;
1475;SDS011;730;48.870;12.542;2023-01-16T15:58:14;4.97;;;4.47;;
1475;SDS011;730;48.870;12.542;2023-01-16T16:00:43;7.83;;;3.67;;
1475;SDS011;730;48.870;12.542;2023-01-16T16:03:11;2.90;;;2.30;;
1475;SDS011;730;48.870;12.542;2023-01-16T16:05:39;3.35;;;2.55;;
1475;SDS011;730;48.870;12.542;2023-01-16T16:08:11;3.72;;;3.00;;
1475;SDS011;730;48.870;12.542;2023-01-16T16:10:50;4.07;;;3.67;;
1475;SDS011;730;48.870;12.542;2023-01-16T16:13:36;3.85;;;3.55;;
1475;SDS011;730;48.870;12.542;2023-01-16T16:16:14;2.58;;;1.67;;
1475;SDS011;730;48.870;12.542;2023-01-16T16:18:59;4.05;;;2.28;;
1475;SDS011;730;48.870;12.542;2023-01-16T16:24:31;5.60;;;5.13;;
1475;SDS011;730;48.870;12.542;2023-01-16T16:27:03;6.15;;;5.28;;
1475;SDS011;730;48.870;12.542;2023-01-16T16:29:35;5.60;;;4.90;;
1475;SDS011;730;48.870;12.542;2023-01-16T16:32:02;4.85;;;3.05;;
1475;SDS011;730;48.870;12.542;2023-01-16T16:34:30;2.53;;;2.00;;
1475;SDS011;730;48.870;12.542;2023-01-16T16:37:03;2.35;;;1.75;;
1475;SDS011;730;48.870;12.542;2023-01-16T16:43:05;1.52;;;1.27;;
1475;SDS011;730;48.870;12.542;2023-01-16T16:45:19;2.07;;;1.33;;
1475;SDS011;730;48.870;12.542;2023-01-16T16:47:46;1.70;;;1.10;;
1475;SDS011;730;48.870;12.542;2023-01-16T16:50:33;1.85;;;1.45;;
1475;SDS011;730;48.870;12.542;2023-01-16T16:55:35;3.45;;;2.15;;
1475;SDS011;730;48.870;12.542;2023-01-16T16:58:13;3.03;;;2.70;;
1475;SDS011;730;48.870;12.542;2023-01-16T17:00:40;3.40;;;3.10;;
1475;SDS011;730;48.870;12.542;2023-01-16T17:05:43;5.38;;;3.72;;
1475;SDS011;730;48.870;12.542;2023-01-16T17:08:15;7.65;;;4.40;;
1475;SDS011;730;48.870;12.542;2023-01-16T17:10:47;7.70;;;6.00;;
1475;SDS011;730;48.870;12.542;2023-01-16T17:13:17;9.57;;;7.55;;
1475;SDS011;730;48.870;12.542;2023-01-16T17:15:45;9.15;;;8.15;;
1475;SDS011;730;48.870;12.542;2023-01-16T17:18:12;12.02;;;10.82;;
1475;SDS011;730;48.870;12.542;2023-01-16T17:20:40;10.33;;;9.33;;
1475;SDS011;730;48.870;12.542;2023-01-16T17:23:13;9.93;;;8.93;;
1475;SDS011;730;48.870;12.542;2023-01-16T17:25:41;18.48;;;14.82;;
1475;SDS011;730;48.870;12.542;2023-01-16T17:28:08;17.03;;;15.13;;
1475;SDS011;730;48.870;12.542;2023-01-16T17:30:34;6.43;;;5.73;;
1475;SDS011;730;48.870;12.542;2023-01-16T17:33:02;7.30;;;6.10;;
1475;SDS011;730;48.870;12.542;2023-01-16T17:35:35;8.98;;;6.40;;
1475;SDS011;730;48.870;12.542;2023-01-16T17:38:11;6.53;;;5.97;;
1475;SDS011;730;48.870;12.542;2023-01-16T17:40:38;8.40;;;7.00;;
1475;SDS011;730;48.870;12.542;2023-01-16T17:43:04;9.43;;;5.95;;
1475;SDS011;730;48.870;12.542;2023-01-16T17:45:50;7.85;;;5.70;;
1475;SDS011;730;48.870;12.542;2023-01-16T17:48:21;7.05;;;6.13;;
1475;SDS011;730;48.870;12.542;2023-01-16T17:50:57;13.65;;;11.07;;
1475;SDS011;730;48.870;12.542;2023-01-16T17:53:25;17.85;;;14.30;;
1475;SDS011;730;48.870;12.542;2023-01-16T17:55:53;16.38;;;12.07;;
1475;SDS011;730;48.870;12.542;2023-01-16T17:58:25;16.88;;;12.95;;
1475;SDS011;730;48.870;12.542;2023-01-16T18:00:59;10.77;;;9.68;;
1475;SDS011;730;48.870;12.542;2023-01-16T18:03:29;16.65;;;10.98;;
1475;SDS011;730;48.870;12.542;2023-01-16T18:06:00;13.98;;;8.50;;
1475;SDS011;730;48.870;12.542;2023-01-16T18:08:28;8.52;;;6.63;;
1475;SDS011;730;48.870;12.542;2023-01-16T18:10:55;8.25;;;5.95;;
1475;SDS011;730;48.870;12.542;2023-01-16T18:13:21;8.02;;;4.90;;
1475;SDS011;730;48.870;12.542;2023-01-16T18:16:09;7.15;;;5.68;;
1475;SDS011;730;48.870;12.542;2023-01-16T18:18:58;5.95;;;5.35;;
1475;SDS011;730;48.870;12.542;2023-01-16T18:21:24;4.95;;;4.15;;
1475;SDS011;730;48.870;12.542;2023-01-16T18:24:08;5.28;;;4.78;;
1475;SDS011;730;48.870;12.542;2023-01-16T18:26:34;4.38;;;3.80;;
1475;SDS011;730;48.870;12.542;2023-01-16T18:29:00;4.40;;;3.20;;
1475;SDS011;730;48.870;12.542;2023-01-16T18:31:27;6.22;;;4.32;;
1475;SDS011;730;48.870;12.542;2023-01-16T18:33:53;6.15;;;5.35;;
1475;SDS011;730;48.870;12.542;2023-01-16T18:36:19;8.93;;;6.60;;
1475;SDS011;730;48.870;12.542;2023-01-16T18:38:46;6.85;;;5.15;;
1475;SDS011;730;48.870;12.542;2023-01-16T18:41:31;3.70;;;3.30;;
1475;SDS011;730;48.870;12.542;2023-01-16T18:44:16;3.03;;;2.70;;
1475;SDS011;730;48.870;12.542;2023-01-16T18:47:00;3.65;;;2.70;;